Time;durP1;ratioP1;P1;durP2;ratioP2;P2;SDS_P1;SDS_P2;PMS_P1;PMS_P2;Temp;Humidity;BMP_temperature;BMP_pressure;BME280_temperature;BME280_humidity;BME280_pressure;Samples;Min_cycle;Max_cycle;Signal;HPM_P1;HPM_P2
2023/10/31 00:02:22;;;;;;;16.60;11.50;;;;;;;11.07;92.93;98887.57;131101;1254;107665;-79
2023/10/31 00:05:28;;;;;;;17.50;10.60;;;;;;;11.10;92.77;98880.44;131116;1254;107863;-80
2023/10/31 00:08:33;;;;;;;18.70;11.90;;;;;;;11.11;92.86;98877.22;131145;1257;106644;-80
2023/10/31 00:11:42;;;;;;;18.90;11.30;;;;;;;11.12;92.87;98863.78;131068;1259;107731;-80
2023/10/31 00:14:47;;;;;;;18.20;13.50;;;;;;;11.11;92.85;98864.24;131167;1254;108516;-80
2023/10/31 00:17:53;;;;;;;19.40;12.80;;;;;;;11.09;92.70;98861.02;131096;1258;107786;-80
2023/10/31 00:20:58;;;;;;;19.10;13.30;;;;;;;11.05;93.03;98857.52;131084;1256;108582;-80
2023/10/31 00:24:04;;;;;;;17.30;12.40;;;;;;;11.04;92.94;98851.23;131153;1254;106618;-79
2023/10/31 00:27:10;;;;;;;18.60;12.20;;;;;;;11.07;92.90;98850.70;130977;1259;106631;-79
2023/10/31 00:30:16;;;;;;;20.10;12.10;;;;;;;11.06;93.19;98853.88;130719;1259;107171;-80
2023/10/31 00:33:22;;;;;;;18.40;11.20;;;;;;;11.05;93.12;98848.73;130837;1257;107567;-79
2023/10/31 00:36:28;;;;;;;15.10;9.90;;;;;;;11.03;93.23;98848.21;130724;1267;106924;-80
2023/10/31 00:39:33;;;;;;;15.60;10.40;;;;;;;11.04;93.42;98844.83;130784;1258;106000;-80
2023/10/31 00:42:41;;;;;;;15.00;10.50;;;;;;;11.07;93.42;98838.98;130834;1257;106171;-80
2023/10/31 00:45:46;;;;;;;16.20;11.10;;;;;;;11.11;93.44;98827.97;130824;1257;107653;-79
2023/10/31 00:48:52;;;;;;;19.30;10.40;;;;;;;11.13;93.71;98817.55;130827;1256;107098;-80
2023/10/31 00:51:57;;;;;;;16.20;10.30;;;;;;;11.15;93.57;98814.48;130848;1257;106269;-80
2023/10/31 00:55:03;;;;;;;16.30;10.70;;;;;;;11.19;93.93;98796.94;130749;1256;108518;-79
2023/10/31 00:58:09;;;;;;;18.20;11.90;;;;;;;11.24;94.08;98786.85;130823;1253;107670;-80
2023/10/31 01:01:14;;;;;;;19.40;10.40;;;;;;;11.30;94.20;98769.02;130869;1256;107791;-80
2023/10/31 01:04:21;;;;;;;18.10;10.80;;;;;;;11.36;94.25;98739.92;130869;1256;108690;-80
2023/10/31 01:07:27;;;;;;;31.90;18.10;;;;;;;11.40;94.54;98754.14;130792;1254;105767;-81
2023/10/31 01:10:33;;;;;;;32.10;17.90;;;;;;;11.45;94.40;98763.77;130768;1256;108377;-80
2023/10/31 01:13:38;;;;;;;20.90;13.60;;;;;;;11.50;94.51;98761.30;130878;1253;107692;-79
2023/10/31 01:16:44;;;;;;;17.40;11.60;;;;;;;11.56;94.42;98744.53;130807;1257;107211;-80
2023/10/31 01:19:49;;;;;;;16.30;10.30;;;;;;;11.58;94.34;98743.15;130846;1256;108628;-81
2023/10/31 01:22:55;;;;;;;19.70;12.40;;;;;;;11.59;94.45;98729.02;131012;1253;107375;-81
2023/10/31 01:26:01;;;;;;;19.30;10.70;;;;;;;11.62;94.69;98725.25;131063;1254;107502;-82
2023/10/31 01:29:06;;;;;;;13.80;8.90;;;;;;;11.65;94.54;98712.81;130996;1254;108773;-81
2023/10/31 01:32:12;;;;;;;12.00;8.60;;;;;;;11.69;94.56;98701.82;130775;1254;108360;-79
2023/10/31 01:35:18;;;;;;;15.80;9.00;;;;;;;11.70;94.39;98688.08;130718;1269;108360;-79
2023/10/31 01:38:24;;;;;;;12.70;7.60;;;;;;;11.68;94.69;98682.18;130660;1257;108438;-79
2023/10/31 01:41:29;;;;;;;11.50;8.40;;;;;;;11.69;94.62;98675.80;130773;1254;107772;-80
2023/10/31 01:44:35;;;;;;;13.70;8.30;;;;;;;11.70;94.87;98678.89;130910;1253;107470;-79
2023/10/31 01:47:40;;;;;;;13.20;8.10;;;;;;;11.72;94.75;98669.23;130878;1254;107644;-79
2023/10/31 01:50:46;;;;;;;14.30;7.50;;;;;;;11.73;94.76;98648.72;130713;1259;106970;-80
2023/10/31 01:53:52;;;;;;;11.10;7.50;;;;;;;11.75;94.77;98636.52;130780;1254;107464;-81
2023/10/31 01:56:58;;;;;;;15.10;7.60;;;;;;;11.76;94.83;98637.73;131048;1256;107678;-80
2023/10/31 02:00:04;;;;;;;12.10;7.20;;;;;;;11.80;94.95;98628.23;131049;1253;107874;-80
2023/10/31 02:03:18;;;;;;;14.10;7.30;;;;;;;11.84;94.93;98628.59;131189;1253;108667;-80
2023/10/31 02:06:23;;;;;;;12.70;7.60;;;;;;;11.84;94.92;98616.58;131061;1257;107616;-80
2023/10/31 02:09:30;;;;;;;11.10;6.90;;;;;;;11.83;94.89;98604.96;131050;1253;106726;-80
2023/10/31 02:12:36;;;;;;;11.70;6.10;;;;;;;11.83;95.10;98593.21;131026;1256;107674;-81
2023/10/31 02:15:42;;;;;;;8.70;6.40;;;;;;;11.85;95.03;98581.88;131103;1256;106642;-81
2023/10/31 02:18:48;;;;;;;11.90;6.80;;;;;;;11.86;94.96;98577.84;131072;1257;107550;-80
2023/10/31 02:21:54;;;;;;;11.00;6.00;;;;;;;11.82;94.95;98568.96;130987;1253;109251;-80
2023/10/31 02:24:59;;;;;;;9.40;5.80;;;;;;;11.83;94.89;98582.45;131161;1253;107130;-80
2023/10/31 02:28:05;;;;;;;10.80;6.10;;;;;;;11.84;95.14;98575.04;130988;1253;108681;-80
2023/10/31 02:31:11;;;;;;;14.40;7.00;;;;;;;11.88;95.34;98563.67;131020;1253;106780;-80
2023/10/31 02:34:17;;;;;;;8.50;6.30;;;;;;;11.92;95.11;98562.30;130987;1256;107790;-80
2023/10/31 02:37:23;;;;;;;9.70;6.50;;;;;;;11.90;94.96;98552.88;130943;1257;106044;-81
2023/10/31 02:40:28;;;;;;;10.40;5.70;;;;;;;11.88;95.15;98542.25;131055;1256;106601;-81
2023/10/31 02:43:34;;;;;;;8.80;5.50;;;;;;;11.86;95.35;98544.30;131136;1252;108502;-81
2023/10/31 02:46:41;;;;;;;10.20;5.90;;;;;;;11.89;95.48;98536.09;131009;1253;107679;-81
2023/10/31 02:49:46;;;;;;;9.70;5.80;;;;;;;11.93;95.46;98528.55;131082;1256;107701;-80
2023/10/31 02:52:52;;;;;;;9.40;5.90;;;;;;;11.99;95.55;98530.56;130988;1254;107726;-80
2023/10/31 02:56:00;;;;;;;8.70;5.50;;;;;;;12.01;95.41;98522.34;131137;1256;106827;-81
2023/10/31 02:59:05;;;;;;;10.40;5.60;;;;;;;12.03;95.34;98509.14;131041;1256;107565;-80
2023/10/31 03:02:12;;;;;;;10.10;5.90;;;;;;;12.06;95.55;98502.98;131050;1253;107951;-81
2023/10/31 03:05:18;;;;;;;10.80;5.30;;;;;;;12.10;95.55;98493.52;131095;1258;107746;-81
2023/10/31 03:08:24;;;;;;;8.20;5.40;;;;;;;12.15;95.54;98483.71;131054;1256;107692;-80
2023/10/31 03:11:30;;;;;;;9.80;5.60;;;;;;;12.19;95.61;98475.08;131098;1253;108662;-81
2023/10/31 03:14:36;;;;;;;9.70;5.10;;;;;;;12.21;95.55;98469.31;131055;1253;106516;-81
2023/10/31 03:17:41;;;;;;;9.90;5.50;;;;;;;12.22;95.55;98466.55;131037;1257;106516;-80
2023/10/31 03:20:48;;;;;;;8.10;4.90;;;;;;;12.23;95.68;98453.12;131131;1256;106847;-81
2023/10/31 03:23:55;;;;;;;7.80;5.00;;;;;;;12.27;95.86;98447.20;131144;1254;106626;-81
2023/10/31 03:27:01;;;;;;;9.10;4.90;;;;;;;12.31;95.70;98431.33;131315;1253;108746;-81
2023/10/31 03:30:09;;;;;;;8.30;4.90;;;;;;;12.34;95.74;98423.63;131091;1254;109705;-78
2023/10/31 03:33:15;;;;;;;9.40;4.90;;;;;;;12.36;95.75;98425.63;130960;1258;107171;-77
2023/10/31 03:36:21;;;;;;;10.00;5.00;;;;;;;12.40;95.80;98419.41;130935;1253;106621;-78
2023/10/31 03:39:28;;;;;;;8.80;4.70;;;;;;;12.45;95.92;98415.36;130812;1257;107070;-80
2023/10/31 03:42:34;;;;;;;9.80;5.00;;;;;;;12.49;95.91;98409.20;131049;1253;107444;-78
2023/10/31 03:45:42;;;;;;;8.80;6.30;;;;;;;12.52;95.85;98400.08;130889;1255;107964;-79
2023/10/31 03:48:48;;;;;;;7.90;4.70;;;;;;;12.55;95.94;98392.36;130743;1253;108391;-78
2023/10/31 03:51:53;;;;;;;9.50;5.50;;;;;;;12.58;95.98;98397.37;130882;1257;106548;-78
2023/10/31 03:55:00;;;;;;;8.90;5.50;;;;;;;12.62;95.94;98398.60;130781;1256;106744;-78
2023/10/31 03:58:06;;;;;;;8.10;5.60;;;;;;;12.68;96.01;98397.48;130875;1257;107506;-78
2023/10/31 04:01:11;;;;;;;9.30;6.30;;;;;;;12.71;95.92;98393.59;130870;1254;107788;-78
2023/10/31 04:04:17;;;;;;;8.60;5.20;;;;;;;12.71;95.84;98388.55;130840;1259;108014;-79
2023/10/31 04:07:22;;;;;;;6.70;4.80;;;;;;;12.71;95.99;98383.90;130713;1258;108560;-79
2023/10/31 04:10:28;;;;;;;12.20;8.70;;;;;;;12.74;96.03;98378.34;130875;1256;106605;-81
2023/10/31 04:13:34;;;;;;;12.20;9.20;;;;;;;12.79;95.96;98369.54;130840;1253;106214;-79
2023/10/31 04:16:45;;;;;;;15.30;10.20;;;;;;;12.82;95.87;98361.16;130778;1254;107478;-80
2023/10/31 04:19:51;;;;;;;12.20;9.10;;;;;;;12.84;95.97;98355.76;130797;1253;106998;-79
2023/10/31 04:22:56;;;;;;;8.50;5.70;;;;;;;12.85;95.79;98352.54;130712;1254;106722;-79
2023/10/31 04:26:02;;;;;;;8.80;5.60;;;;;;;12.88;95.82;98345.39;130801;1257;107561;-79
2023/10/31 04:29:08;;;;;;;12.30;8.60;;;;;;;12.92;95.77;98330.35;130766;1254;108541;-79
2023/10/31 04:32:14;;;;;;;7.60;4.60;;;;;;;12.97;95.75;98314.55;130783;1257;107771;-79
2023/10/31 04:35:19;;;;;;;11.90;5.90;;;;;;;13.00;95.62;98307.20;130851;1253;107769;-79
2023/10/31 04:38:25;;;;;;;5.60;3.20;;;;;;;13.01;95.61;98300.63;130784;1257;108405;-79
2023/10/31 04:41:31;;;;;;;8.80;4.20;;;;;;;13.02;95.54;98298.23;130780;1254;106626;-79
2023/10/31 04:44:36;;;;;;;8.00;3.80;;;;;;;13.06;95.47;98296.84;130830;1254;108353;-79
2023/10/31 04:47:43;;;;;;;7.30;4.00;;;;;;;13.09;95.44;98294.69;130876;1257;106831;-82
2023/10/31 04:50:48;;;;;;;6.50;3.40;;;;;;;13.10;95.43;98295.96;130828;1256;107689;-79
2023/10/31 04:53:54;;;;;;;7.00;3.80;;;;;;;13.10;95.36;98288.84;130770;1254;108544;-78
2023/10/31 04:56:59;;;;;;;7.20;3.50;;;;;;;13.09;95.40;98291.19;130814;1257;107640;-78
2023/10/31 05:00:08;;;;;;;6.80;3.30;;;;;;;13.11;95.38;98293.27;130829;1254;106460;-78
2023/10/31 05:03:13;;;;;;;5.80;3.20;;;;;;;13.15;95.36;98290.03;130864;1256;106449;-78
2023/10/31 05:06:23;;;;;;;6.20;3.30;;;;;;;13.19;95.15;98283.57;130790;1254;108583;-78
2023/10/31 05:09:29;;;;;;;4.40;3.10;;;;;;;13.21;95.21;98287.60;130810;1257;106788;-78
2023/10/31 05:12:34;;;;;;;8.60;3.70;;;;;;;13.23;95.16;98282.89;130799;1259;106862;-79
2023/10/31 05:15:40;;;;;;;6.10;3.20;;;;;;;13.25;95.07;98278.95;130797;1254;106792;-79
2023/10/31 05:18:45;;;;;;;9.30;4.20;;;;;;;13.28;95.02;98280.41;130829;1254;107521;-79
2023/10/31 05:21:51;;;;;;;7.10;4.30;;;;;;;13.32;94.83;98277.96;130856;1257;106863;-79
2023/10/31 05:24:57;;;;;;;5.00;3.60;;;;;;;13.34;94.63;98276.55;130853;1256;107725;-79
2023/10/31 05:28:03;;;;;;;6.00;3.50;;;;;;;13.35;94.60;98279.84;130865;1259;106958;-78
2023/10/31 05:31:09;;;;;;;6.60;4.50;;;;;;;13.35;94.38;98279.30;130757;1257;106623;-79
2023/10/31 05:34:14;;;;;;;7.80;4.40;;;;;;;13.37;94.31;98274.76;130864;1256;108675;-79
2023/10/31 05:37:20;;;;;;;10.50;8.10;;;;;;;13.41;94.08;98271.60;130777;1256;107704;-78
2023/10/31 05:40:27;;;;;;;8.20;5.40;;;;;;;13.45;94.19;98269.41;134991;1253;106242;-79
2023/10/31 05:43:33;;;;;;;6.00;4.00;;;;;;;13.46;94.07;98273.07;135053;1252;106995;-79
2023/10/31 05:46:41;;;;;;;9.20;5.50;;;;;;;13.49;93.87;98272.91;135069;1254;106324;-80
2023/10/31 05:49:47;;;;;;;6.70;4.90;;;;;;;13.52;93.84;98273.13;135073;1252;106941;-77
2023/10/31 05:52:52;;;;;;;10.10;6.00;;;;;;;13.58;93.58;98270.69;133262;1253;106637;-76
2023/10/31 05:55:58;;;;;;;9.70;5.70;;;;;;;13.64;93.63;98272.89;130770;1253;108699;-75
2023/10/31 05:59:03;;;;;;;9.10;6.60;;;;;;;13.68;93.18;98271.99;130769;1258;107834;-76
2023/10/31 06:02:09;;;;;;;9.70;5.90;;;;;;;13.68;93.36;98270.30;130723;1257;107666;-75
2023/10/31 06:05:15;;;;;;;7.10;4.00;;;;;;;13.69;93.05;98266.94;130847;1256;107716;-75
2023/10/31 06:08:21;;;;;;;6.10;3.90;;;;;;;13.70;92.87;98257.45;130598;1259;107775;-75
2023/10/31 06:11:27;;;;;;;9.10;5.20;;;;;;;13.75;93.04;98255.00;130994;1256;106493;-76
2023/10/31 06:14:32;;;;;;;7.70;5.00;;;;;;;13.80;93.08;98256.73;130672;1257;107586;-77
2023/10/31 06:17:39;;;;;;;15.40;8.60;;;;;;;13.83;92.78;98260.58;130841;1254;106713;-76
2023/10/31 06:20:45;;;;;;;9.90;6.80;;;;;;;13.83;92.57;98260.91;130753;1256;105833;-75
2023/10/31 06:23:50;;;;;;;11.40;8.00;;;;;;;13.83;92.56;98263.38;130705;1259;107779;-75
2023/10/31 06:26:56;;;;;;;9.10;5.30;;;;;;;13.85;92.42;98265.59;130753;1256;107589;-75
2023/10/31 06:30:02;;;;;;;9.20;4.90;;;;;;;13.88;92.33;98265.80;130699;1256;107359;-75
2023/10/31 06:33:08;;;;;;;6.40;3.80;;;;;;;13.93;92.30;98277.62;130897;1254;106515;-75
2023/10/31 06:36:15;;;;;;;5.30;3.30;;;;;;;13.95;92.06;98277.84;130759;1258;107374;-75
2023/10/31 06:39:22;;;;;;;4.50;2.70;;;;;;;13.95;91.86;98288.23;130731;1256;107840;-75
2023/10/31 06:42:27;;;;;;;5.30;3.00;;;;;;;13.95;91.81;98292.15;130725;1259;107902;-75
2023/10/31 06:45:33;;;;;;;5.00;3.30;;;;;;;13.96;91.85;98286.38;130754;1267;106553;-75
2023/10/31 06:48:39;;;;;;;7.40;3.40;;;;;;;13.98;92.07;98285.65;130825;1257;105643;-75
2023/10/31 06:51:44;;;;;;;6.80;4.20;;;;;;;14.03;92.25;98287.58;130772;1256;108434;-76
2023/10/31 06:54:50;;;;;;;5.90;3.70;;;;;;;14.06;92.60;98291.41;130769;1258;106191;-75
2023/10/31 06:57:55;;;;;;;8.40;4.70;;;;;;;14.08;92.62;98288.05;130776;1256;108741;-75
2023/10/31 07:01:01;;;;;;;7.10;4.40;;;;;;;14.09;92.78;98288.11;130747;1256;107802;-75
2023/10/31 07:04:07;;;;;;;7.90;3.70;;;;;;;14.10;92.86;98275.36;130643;1259;107680;-75
2023/10/31 07:07:13;;;;;;;5.90;3.40;;;;;;;14.10;93.10;98271.85;130842;1253;108698;-75
2023/10/31 07:10:19;;;;;;;8.90;3.50;;;;;;;14.14;93.29;98273.48;130700;1258;107536;-75
2023/10/31 07:13:24;;;;;;;8.60;4.40;;;;;;;14.17;93.32;98266.61;130786;1257;107479;-75
2023/10/31 07:16:30;;;;;;;11.10;7.00;;;;;;;14.18;93.30;98256.86;130590;1259;108227;-76
2023/10/31 07:19:35;;;;;;;11.30;4.70;;;;;;;14.18;93.33;98256.13;130686;1259;107569;-76
2023/10/31 07:22:41;;;;;;;6.60;3.30;;;;;;;14.22;93.13;98250.05;130626;1258;107730;-76
2023/10/31 07:25:46;;;;;;;9.10;3.80;;;;;;;14.24;93.08;98242.50;130548;1259;109165;-76
2023/10/31 07:28:52;;;;;;;5.60;3.80;;;;;;;14.26;92.84;98237.98;130659;1254;107720;-76
2023/10/31 07:31:57;;;;;;;8.20;4.70;;;;;;;14.27;92.94;98237.77;130677;1258;107757;-77
2023/10/31 07:35:03;;;;;;;6.50;4.80;;;;;;;14.27;92.86;98239.83;130618;1258;107728;-75
2023/10/31 07:38:09;;;;;;;13.30;8.70;;;;;;;14.28;92.65;98244.92;130580;1258;107189;-75
2023/10/31 07:41:14;;;;;;;6.30;4.00;;;;;;;14.32;92.66;98251.14;130572;1259;107085;-75
2023/10/31 07:44:20;;;;;;;8.90;5.70;;;;;;;14.38;92.64;98245.99;130678;1259;108493;-74
2023/10/31 07:47:26;;;;;;;7.20;5.30;;;;;;;14.44;92.28;98236.98;130699;1257;106564;-74
2023/10/31 07:50:31;;;;;;;8.70;5.10;;;;;;;14.50;92.17;98230.44;130712;1258;108474;-76
2023/10/31 07:53:37;;;;;;;7.20;3.70;;;;;;;14.55;92.08;98236.95;130584;1259;107783;-76
2023/10/31 07:56:43;;;;;;;5.90;3.20;;;;;;;14.58;92.11;98231.89;130619;1258;107324;-76
2023/10/31 07:59:48;;;;;;;6.30;3.00;;;;;;;14.61;91.98;98233.96;130653;1257;105714;-75
2023/10/31 08:02:54;;;;;;;5.80;3.00;;;;;;;14.62;91.35;98232.81;130786;1259;108566;-74
2023/10/31 08:06:00;;;;;;;3.90;3.00;;;;;;;14.64;91.40;98234.10;130813;1256;108712;-77
2023/10/31 08:09:06;;;;;;;7.40;3.60;;;;;;;14.66;91.12;98232.42;130792;1254;106628;-75
2023/10/31 08:12:12;;;;;;;5.20;3.30;;;;;;;14.68;90.82;98228.73;132201;1256;107682;-76
2023/10/31 08:15:17;;;;;;;6.50;3.50;;;;;;;14.69;90.69;98227.52;130837;1257;106705;-75
2023/10/31 08:18:24;;;;;;;6.10;3.20;;;;;;;14.69;91.00;98230.52;130805;1257;107463;-76
2023/10/31 08:21:34;;;;;;;4.60;2.70;;;;;;;14.70;90.66;98233.39;130800;1259;107076;-75
2023/10/31 08:24:40;;;;;;;5.30;3.00;;;;;;;14.72;90.67;98237.09;130785;1257;107748;-75
2023/10/31 08:27:46;;;;;;;4.50;2.80;;;;;;;14.78;90.34;98237.82;130749;1254;107615;-75
2023/10/31 08:30:52;;;;;;;6.90;3.70;;;;;;;14.83;90.21;98242.15;130825;1259;106365;-75
2023/10/31 08:33:57;;;;;;;7.80;3.20;;;;;;;14.89;89.94;98244.89;130826;1256;108721;-75
2023/10/31 08:37:03;;;;;;;5.10;3.00;;;;;;;14.95;89.71;98242.92;130842;1256;107845;-75
2023/10/31 08:40:10;;;;;;;5.90;2.90;;;;;;;15.02;89.65;98241.15;130810;1259;106116;-76
2023/10/31 08:43:16;;;;;;;5.00;2.90;;;;;;;15.12;89.69;98242.85;130832;1256;107715;-76
2023/10/31 08:46:22;;;;;;;4.90;3.10;;;;;;;15.24;89.83;98247.17;130794;1257;107690;-76
2023/10/31 08:49:27;;;;;;;6.40;3.70;;;;;;;15.38;89.55;98247.27;130830;1255;107421;-76
2023/10/31 08:52:33;;;;;;;6.20;3.10;;;;;;;15.52;89.56;98246.56;130847;1267;107597;-76
2023/10/31 08:55:38;;;;;;;6.50;3.00;;;;;;;15.65;89.55;98252.61;130768;1257;108600;-76
2023/10/31 08:58:44;;;;;;;7.10;2.90;;;;;;;15.76;89.24;98255.62;130871;1259;107593;-77
2023/10/31 09:01:49;;;;;;;9.00;3.30;;;;;;;15.83;88.76;98260.99;130741;1257;108410;-76
2023/10/31 09:04:55;;;;;;;7.50;3.40;;;;;;;15.86;88.10;98266.81;130766;1253;108054;-76
2023/10/31 09:08:00;;;;;;;6.00;3.20;;;;;;;15.85;88.14;98265.67;130734;1269;106701;-76
2023/10/31 09:11:06;;;;;;;8.10;3.50;;;;;;;15.87;88.07;98263.02;130840;1259;107615;-76
2023/10/31 09:14:12;;;;;;;5.20;3.60;;;;;;;15.94;87.99;98264.23;130874;1257;107807;-76
2023/10/31 09:17:18;;;;;;;4.50;3.10;;;;;;;15.99;87.99;98272.65;130783;1256;106697;-76
2023/10/31 09:20:24;;;;;;;4.30;3.20;;;;;;;16.01;87.66;98267.44;131709;1253;107263;-76
2023/10/31 09:23:30;;;;;;;5.30;3.20;;;;;;;16.02;87.64;98276.73;132262;1253;107756;-76
2023/10/31 09:26:36;;;;;;;8.30;3.70;;;;;;;16.05;87.62;98268.84;135117;1253;106700;-77
2023/10/31 09:29:41;;;;;;;6.40;3.30;;;;;;;16.11;87.08;98269.01;135069;1253;108666;-77
2023/10/31 09:32:47;;;;;;;9.50;5.30;;;;;;;16.18;87.29;98273.51;135083;1253;107277;-77
2023/10/31 09:35:53;;;;;;;4.90;3.00;;;;;;;16.28;86.47;98271.33;132569;1255;107645;-76
2023/10/31 09:38:58;;;;;;;4.50;2.80;;;;;;;16.38;85.99;98269.91;130817;1257;107802;-75
2023/10/31 09:42:04;;;;;;;5.30;3.10;;;;;;;16.49;86.48;98272.78;130773;1260;107020;-74
2023/10/31 09:45:11;;;;;;;8.90;5.50;;;;;;;16.63;86.15;98277.16;130807;1257;108780;-77
2023/10/31 09:48:18;;;;;;;5.60;3.90;;;;;;;16.76;85.97;98281.84;130760;1257;107270;-77
2023/10/31 09:51:24;;;;;;;4.40;2.70;;;;;;;16.90;85.62;98270.59;130770;1257;106971;-77
2023/10/31 09:54:31;;;;;;;5.80;2.60;;;;;;;17.04;85.17;98274.11;130763;1259;108656;-75
2023/10/31 09:57:37;;;;;;;7.20;2.50;;;;;;;17.06;84.81;98279.95;130823;1265;107956;-76
2023/10/31 10:00:43;;;;;;;6.50;2.90;;;;;;;16.98;84.46;98282.41;130838;1266;107050;-76
2023/10/31 10:03:48;;;;;;;8.20;3.00;;;;;;;16.88;83.78;98288.60;130817;1254;108746;-76
2023/10/31 10:07:01;;;;;;;3.90;2.30;;;;;;;16.81;84.55;98296.96;130761;1257;107685;-75
2023/10/31 10:10:10;;;;;;;5.70;2.60;;;;;;;16.75;84.67;98296.84;130861;1260;107060;-76
2023/10/31 10:13:17;;;;;;;3.80;2.40;;;;;;;16.71;84.59;98303.71;130839;1257;107942;-76
2023/10/31 10:16:32;;;;;;;3.50;2.50;;;;;;;16.69;84.46;98300.35;130791;1257;106694;-76
2023/10/31 10:19:38;;;;;;;8.70;2.20;;;;;;;16.73;84.80;98294.96;130815;1253;107738;-75
2023/10/31 10:22:44;;;;;;;7.20;2.60;;;;;;;16.81;84.73;98299.11;130784;1260;107657;-77
2023/10/31 10:25:53;;;;;;;3.90;2.60;;;;;;;16.96;84.68;98297.83;130754;1258;106882;-75
2023/10/31 10:28:58;;;;;;;4.70;2.40;;;;;;;17.20;84.36;98298.09;130847;1256;107657;-75
2023/10/31 10:32:09;;;;;;;4.10;2.40;;;;;;;17.37;84.46;98305.62;130731;1256;107583;-75
2023/10/31 10:35:15;;;;;;;3.30;2.30;;;;;;;17.38;83.50;98314.55;130830;1260;106563;-75
2023/10/31 10:38:23;;;;;;;5.10;2.30;;;;;;;17.28;82.90;98322.16;130770;1256;107761;-75
2023/10/31 10:41:29;;;;;;;7.10;2.40;;;;;;;17.19;83.67;98333.95;130763;1260;107868;-75
2023/10/31 10:44:38;;;;;;;4.40;2.70;;;;;;;17.08;83.74;98344.45;130570;1256;279030;-76
2023/10/31 10:47:48;;;;;;;4.40;2.40;;;;;;;16.94;83.47;98350.17;130807;1259;107422;-75
2023/10/31 10:51:01;;;;;;;5.80;2.10;;;;;;;16.82;83.97;98354.16;130789;1258;106497;-75
2023/10/31 10:54:15;;;;;;;6.10;2.30;;;;;;;16.76;83.73;98361.73;130750;1257;107333;-75
2023/10/31 10:57:31;;;;;;;4.40;2.40;;;;;;;16.72;83.87;98364.44;130804;1256;106638;-75
2023/10/31 11:00:37;;;;;;;7.00;2.70;;;;;;;16.66;83.38;98371.92;130736;1266;106446;-77
2023/10/31 11:03:44;;;;;;;3.20;2.50;;;;;;;16.64;83.82;98368.48;130693;1257;108177;-75
2023/10/31 11:06:50;;;;;;;4.50;2.40;;;;;;;16.65;83.90;98367.52;130636;1267;107718;-75
2023/10/31 11:09:57;;;;;;;2.60;2.00;;;;;;;16.64;83.59;98368.42;130657;1259;106916;-77
2023/10/31 11:13:02;;;;;;;9.50;2.40;;;;;;;16.67;83.83;98364.02;130581;1254;107519;-75
2023/10/31 11:16:14;;;;;;;2.50;1.80;;;;;;;16.80;83.82;98349.05;130597;1260;106866;-75
2023/10/31 11:19:20;;;;;;;4.30;1.90;;;;;;;16.95;83.76;98352.28;130621;1259;108361;-75
2023/10/31 11:22:26;;;;;;;3.80;1.90;;;;;;;17.04;83.35;98360.27;130702;1259;107808;-75
2023/10/31 11:25:34;;;;;;;2.20;1.60;;;;;;;17.11;83.08;98360.93;130574;1259;107633;-76
2023/10/31 11:28:39;;;;;;;2.00;1.50;;;;;;;17.18;83.16;98361.45;130574;1253;108682;-76
2023/10/31 11:31:45;;;;;;;2.90;1.70;;;;;;;17.24;82.99;98374.71;130616;1260;108490;-76
2023/10/31 11:34:50;;;;;;;2.50;1.70;;;;;;;17.24;82.84;98383.55;130690;1258;105678;-76
2023/10/31 11:38:05;;;;;;;3.10;1.50;;;;;;;17.22;82.56;98381.39;130629;1255;106955;-76
2023/10/31 11:41:12;;;;;;;2.60;1.60;;;;;;;17.14;82.95;98393.81;130751;1260;108623;-76
2023/10/31 11:44:18;;;;;;;3.00;1.70;;;;;;;17.09;82.78;98394.73;130544;1258;108454;-76
2023/10/31 11:47:25;;;;;;;2.40;1.60;;;;;;;17.02;82.31;98401.35;130722;1255;107626;-77
2023/10/31 11:50:31;;;;;;;3.50;1.60;;;;;;;16.97;82.37;98403.96;130766;1260;106835;-77
2023/10/31 11:53:41;;;;;;;3.70;1.70;;;;;;;16.95;82.73;98413.57;130638;1259;107048;-75
2023/10/31 11:56:57;;;;;;;2.60;1.50;;;;;;;16.93;82.56;98429.79;130704;1254;106905;-76
2023/10/31 12:00:04;;;;;;;3.20;1.60;;;;;;;16.86;82.62;98434.02;130645;1259;108525;-76
2023/10/31 12:03:19;;;;;;;1.80;1.40;;;;;;;16.75;82.64;98431.45;130782;1265;107520;-75
2023/10/31 12:06:25;;;;;;;3.50;1.70;;;;;;;16.66;82.77;98429.01;130885;1257;108715;-76
2023/10/31 12:09:31;;;;;;;2.30;1.60;;;;;;;16.59;82.67;98437.15;130751;1254;106976;-76
2023/10/31 12:12:36;;;;;;;2.90;1.20;;;;;;;16.53;82.70;98433.29;130752;1264;107392;-77
2023/10/31 12:15:54;;;;;;;2.50;1.80;;;;;;;16.48;82.79;98439.17;130781;1258;107280;-76
2023/10/31 12:19:01;;;;;;;2.60;1.40;;;;;;;16.47;82.84;98437.70;130800;1260;107796;-76
2023/10/31 12:22:15;;;;;;;1.80;1.50;;;;;;;16.49;82.62;98442.64;130797;1257;107012;-76
2023/10/31 12:25:21;;;;;;;2.80;1.50;;;;;;;16.53;82.55;98441.91;130746;1257;107561;-75
2023/10/31 12:28:28;;;;;;;1.60;1.40;;;;;;;16.59;82.28;98441.41;130748;1267;106187;-76
2023/10/31 12:31:34;;;;;;;1.80;1.10;;;;;;;16.65;82.39;98438.39;130766;1260;108688;-76
2023/10/31 12:34:45;;;;;;;2.30;1.60;;;;;;;16.76;82.50;98432.81;130823;1259;108127;-76
2023/10/31 12:37:52;;;;;;;1.80;1.50;;;;;;;16.85;82.28;98436.69;130746;1257;107539;-76
2023/10/31 12:40:58;;;;;;;2.00;1.20;;;;;;;16.86;82.08;98447.06;130739;1254;107711;-76
2023/10/31 12:44:05;;;;;;;2.50;1.30;;;;;;;16.86;81.78;98454.33;130805;1258;107978;-76
2023/10/31 12:47:11;;;;;;;1.70;1.50;;;;;;;16.83;81.62;98462.34;130744;1258;107847;-76
2023/10/31 12:50:18;;;;;;;1.80;1.20;;;;;;;16.75;81.70;98472.35;130764;1257;108683;-76
2023/10/31 12:53:27;;;;;;;2.10;1.40;;;;;;;16.68;81.68;98472.73;130765;1254;107054;-76
2023/10/31 12:56:41;;;;;;;1.40;1.20;;;;;;;16.61;81.36;98475.16;130817;1254;105850;-77
2023/10/31 12:59:46;;;;;;;2.00;1.30;;;;;;;16.53;81.44;98482.38;130796;1257;106888;-75
2023/10/31 13:02:53;;;;;;;4.10;1.40;;;;;;;16.45;81.37;98488.92;130791;1257;107172;-76
2023/10/31 13:05:58;;;;;;;2.80;1.40;;;;;;;16.33;81.51;98487.35;130954;1257;107733;-75
2023/10/31 13:09:11;;;;;;;1.50;1.30;;;;;;;16.22;81.58;98495.82;130763;1267;107406;-76
2023/10/31 13:12:17;;;;;;;4.00;1.40;;;;;;;16.11;81.47;98498.13;130820;1257;106432;-76
2023/10/31 13:15:24;;;;;;;1.90;1.40;;;;;;;16.00;81.57;98502.89;130731;1259;106687;-75
2023/10/31 13:18:29;;;;;;;1.90;1.40;;;;;;;15.96;81.32;98510.77;130860;1258;106694;-75
2023/10/31 13:21:35;;;;;;;1.20;1.00;;;;;;;15.90;81.06;98499.56;130710;1259;107690;-76
2023/10/31 13:24:42;;;;;;;1.70;1.20;;;;;;;15.89;81.21;98500.98;130804;1260;106414;-76
2023/10/31 13:27:51;;;;;;;2.80;1.70;;;;;;;15.91;81.24;98500.92;130748;1267;107598;-76
2023/10/31 13:30:56;;;;;;;1.80;1.40;;;;;;;15.88;81.07;98511.36;130822;1257;106619;-75
2023/10/31 13:34:02;;;;;;;3.60;1.30;;;;;;;15.83;81.15;98516.93;130801;1257;106828;-75
2023/10/31 13:37:08;;;;;;;2.00;1.50;;;;;;;15.81;80.97;98519.94;130841;1259;105836;-75
2023/10/31 13:40:14;;;;;;;2.20;1.30;;;;;;;15.87;81.17;98518.52;130809;1257;108647;-75
2023/10/31 13:43:20;;;;;;;3.00;1.30;;;;;;;15.89;81.10;98516.47;130790;1260;107887;-75
2023/10/31 13:46:25;;;;;;;3.70;1.50;;;;;;;15.88;81.03;98519.52;130847;1257;106803;-75
2023/10/31 13:49:31;;;;;;;2.40;1.40;;;;;;;15.87;81.12;98531.61;130758;1252;107775;-76
2023/10/31 13:52:37;;;;;;;1.70;1.40;;;;;;;15.87;81.04;98541.08;130803;1258;106794;-76
2023/10/31 13:55:43;;;;;;;2.40;1.50;;;;;;;15.85;80.87;98539.23;130774;1254;107681;-76
2023/10/31 13:58:49;;;;;;;5.90;3.90;;;;;;;15.83;80.79;98540.85;130734;1267;107767;-76
2023/10/31 14:01:54;;;;;;;93.00;35.30;;;;;;;15.80;80.83;98544.66;130842;1255;107539;-76
2023/10/31 14:05:00;;;;;;;47.10;23.60;;;;;;;15.78;80.83;98544.66;130918;1254;107691;-76
2023/10/31 14:08:07;;;;;;;28.50;18.50;;;;;;;15.76;80.89;98550.09;130774;1257;106530;-76
2023/10/31 14:11:13;;;;;;;52.70;32.80;;;;;;;15.74;80.79;98539.70;130716;1260;107065;-76
2023/10/31 14:14:19;;;;;;;33.50;18.90;;;;;;;15.70;80.72;98525.33;130811;1256;107657;-75